KGDV

Dawson Community Airport

Glendive, Montana, USA
KGDV 241720Z 2418/2518 VRB05KT P6SM BKN018 FM241900 VRB06KT P6SM BKN022 FM242000 33008KT P6SM VCSH BKN030 FM250000 31010KT P6SM BKN040 FM251300 29014G24KT P6SM BKN016 FM251600 30019G27KT P6SM SCT016
Issued Valid From Valid To
Sep-24 @ 17:20 UTC
(2 hours ago)
Sep-24 @ 18:00 UTC
(an hour ago)
Sep-25 @ 18:00 UTC
(in 23 hours)
Expired Click to View Sep-24 @ 18:00 to Sep-24 @ 19:00
KGDV 241720Z 2418/2518 VRB05KT P6SM BKN018
Wind Visibility Clouds
Variable at 5 knots Greater than 6 miles
  • Broken at 1,800' AGL
From Sep-24 @ 19:00 to Sep-24 @ 20:00
FM241900 VRB06KT P6SM BKN022
Wind Visibility Clouds
Variable at 6 knots Greater than 6 miles
  • Broken at 2,200' AGL
From Sep-24 @ 20:00 to Sep-25 @ 00:00
FM242000 33008KT P6SM VCSH BKN030
Wind Visibility Clouds
330° at 8 knots Greater than 6 miles
  • Broken at 3,000' AGL
From Sep-25 @ 00:00 to Sep-25 @ 13:00
FM250000 31010KT P6SM BKN040
Wind Visibility Clouds
310° at 10 knots Greater than 6 miles
  • Broken at 4,000' AGL
From Sep-25 @ 13:00 to Sep-25 @ 16:00
FM251300 29014G24KT P6SM BKN016
Wind Visibility Clouds
290° at 14 knots
 Gusting to 24 knots
Greater than 6 miles
  • Broken at 1,600' AGL
From Sep-25 @ 16:00 to Sep-25 @ 18:00
FM251600 30019G27KT P6SM SCT016
Wind Visibility Clouds
300° at 19 knots
 Gusting to 27 knots
Greater than 6 miles
  • Scattered at 1,600' AGL
KGDV 241720Z 2418/2518 VRB05KT P6SM BKN018 FM241900 VRB06KT P6SM BKN022 FM242000 33008KT P6SM VCSH BKN030 FM250000 31010KT P6SM BKN040 FM251300 29014G24KT P6SM BKN016 FM251600 30019G27KT P6SM SCT016
Issued Sep-24 @ 17:20 UTC
(2 hours ago)
Valid From Sep-24 @ 18:00 UTC
(an hour ago)
Valid To Sep-25 @ 18:00 UTC
(in 23 hours)
Sep-24 @ 18:00 - Sep-24 @ 19:00
Wind Visibility
Variable at 5 knots Greater than 6 miles
Clouds
  • Broken at 1,800' AGL
From Sep-24 @ 19:00 - Sep-24 @ 20:00
Wind Visibility
Variable at 6 knots Greater than 6 miles
Clouds
  • Broken at 2,200' AGL
From Sep-24 @ 20:00 - Sep-25 @ 00:00
Wind Visibility
330° at 8 knots Greater than 6 miles
Clouds
  • Broken at 3,000' AGL
From Sep-25 @ 00:00 - Sep-25 @ 13:00
Wind Visibility
310° at 10 knots Greater than 6 miles
Clouds
  • Broken at 4,000' AGL
From Sep-25 @ 13:00 - Sep-25 @ 16:00
Wind Visibility
290° at 14 knots
 Gusting to 24 knots
Greater than 6 miles
Clouds
  • Broken at 1,600' AGL
From Sep-25 @ 16:00 - Sep-25 @ 18:00
Wind Visibility
300° at 19 knots
 Gusting to 27 knots
Greater than 6 miles
Clouds
  • Scattered at 1,600' AGL